Time;durP1;ratioP1;P1;durP2;ratioP2;P2;SDS_P1;SDS_P2;PMS_P1;PMS_P2;Temp;Humidity;BMP_temperature;BMP_pressure;BME280_temperature;BME280_humidity;BME280_pressure;Samples;Min_cycle;Max_cycle;Signal;HPM_P1;HPM_P2
2023/06/25 00:00:08;;;;;;;2.97;1.60;;;20.90;99.90;;;;;;4836818;29;20589;-76
2023/06/25 00:02:46;;;;;;;3.25;1.70;;;20.90;99.90;;;;;;4840716;29;20060;-77
2023/06/25 00:05:14;;;;;;;3.53;1.85;;;20.90;99.90;;;;;;4824331;29;22419;-77
2023/06/25 00:07:41;;;;;;;3.20;1.80;;;20.90;99.90;;;;;;4810764;29;20065;-77
2023/06/25 00:10:08;;;;;;;3.13;2.15;;;20.90;99.90;;;;;;4824453;29;20844;-76
2023/06/25 00:12:35;;;;;;;2.63;1.45;;;20.80;99.90;;;;;;4814046;29;20069;-76
2023/06/25 00:15:05;;;;;;;2.90;1.58;;;20.80;99.90;;;;;;4814409;29;20081;-76
2023/06/25 00:17:32;;;;;;;5.97;2.08;;;20.80;99.90;;;;;;4826189;29;20060;-76
2023/06/25 00:19:59;;;;;;;3.25;2.05;;;20.80;99.90;;;;;;4841792;29;20809;-77
2023/06/25 00:22:27;;;;;;;3.15;2.13;;;20.80;99.90;;;;;;4847509;29;20044;-77
2023/06/25 00:24:54;;;;;;;3.63;1.75;;;20.80;99.90;;;;;;4842508;29;20056;-77
2023/06/25 00:27:21;;;;;;;3.53;1.90;;;20.70;99.90;;;;;;4846834;29;20652;-76
2023/06/25 00:29:49;;;;;;;2.90;1.70;;;20.80;99.90;;;;;;4857239;29;20678;-77
2023/06/25 00:32:17;;;;;;;3.33;2.00;;;20.80;99.90;;;;;;4854758;29;20044;-77
2023/06/25 00:34:45;;;;;;;2.78;2.10;;;20.80;99.90;;;;;;4845150;29;20058;-77
2023/06/25 00:37:17;;;;;;;4.10;1.77;;;20.80;99.90;;;;;;4849866;29;20971;-76
2023/06/25 00:39:47;;;;;;;5.82;2.17;;;20.80;99.90;;;;;;4858652;29;20059;-76
2023/06/25 00:42:16;;;;;;;4.65;2.28;;;20.80;99.90;;;;;;4845927;29;20052;-76
2023/06/25 00:44:43;;;;;;;3.13;1.90;;;20.70;99.90;;;;;;4868363;29;20111;-77
2023/06/25 00:47:13;;;;;;;3.67;2.38;;;20.70;99.90;;;;;;4854001;29;20044;-77
2023/06/25 00:49:44;;;;;;;4.13;2.38;;;20.70;99.90;;;;;;4834580;29;20144;-77
2023/06/25 00:52:13;;;;;;;4.40;2.33;;;20.70;99.90;;;;;;4850038;29;22433;-76
2023/06/25 00:54:44;;;;;;;3.85;2.20;;;20.80;99.90;;;;;;4848363;29;20044;-77
2023/06/25 00:57:15;;;;;;;3.97;2.10;;;20.80;99.90;;;;;;4860244;29;20036;-77
2023/06/25 00:59:44;;;;;;;2.88;1.77;;;20.80;99.90;;;;;;4858204;29;20049;-77
2023/06/25 01:02:21;;;;;;;3.65;1.90;;;20.80;99.90;;;;;;4831309;29;22410;-76
2023/06/25 01:05:14;;;;;;;4.78;2.22;;;20.80;99.90;;;;;;4836573;29;20185;-77
2023/06/25 01:07:44;;;;;;;5.75;2.67;;;20.80;99.90;;;;;;4850599;29;20120;-77
2023/06/25 01:10:12;;;;;;;3.28;2.10;;;20.80;99.90;;;;;;4849152;29;20075;-77
2023/06/25 01:12:40;;;;;;;4.05;2.38;;;20.80;99.90;;;;;;4857543;29;20127;-77
2023/06/25 01:15:09;;;;;;;3.30;2.30;;;20.80;99.90;;;;;;4847343;29;20500;-77
2023/06/25 01:17:39;;;;;;;3.45;2.30;;;20.70;99.90;;;;;;4876585;29;20204;-77
2023/06/25 01:20:15;;;;;;;3.58;2.05;;;20.70;99.90;;;;;;4844304;29;20053;-77
2023/06/25 01:22:42;;;;;;;3.85;2.55;;;20.70;99.90;;;;;;4873905;29;20048;-77
2023/06/25 01:25:10;;;;;;;2.80;2.08;;;20.70;99.90;;;;;;4853313;29;20135;-77
2023/06/25 01:27:37;;;;;;;4.45;2.33;;;20.70;99.90;;;;;;4837907;29;20487;-77
2023/06/25 01:30:08;;;;;;;3.60;1.95;;;20.70;99.90;;;;;;4864185;29;20045;-77
2023/06/25 01:32:36;;;;;;;5.85;2.45;;;20.70;99.90;;;;;;4872317;29;20050;-77
2023/06/25 01:35:03;;;;;;;6.07;2.58;;;20.70;99.90;;;;;;4866259;29;20060;-77
2023/06/25 01:37:30;;;;;;;3.30;1.92;;;20.70;99.90;;;;;;4866017;29;20045;-77
2023/06/25 01:39:59;;;;;;;3.78;2.00;;;20.80;99.90;;;;;;4856021;29;20049;-77
2023/06/25 01:42:27;;;;;;;3.75;2.10;;;20.80;99.90;;;;;;4852919;29;22429;-77
2023/06/25 01:44:54;;;;;;;4.10;2.58;;;20.80;99.90;;;;;;4848903;29;20055;-76
2023/06/25 01:47:21;;;;;;;4.68;2.50;;;20.70;99.90;;;;;;4862000;29;20518;-77
2023/06/25 01:49:48;;;;;;;3.25;2.10;;;20.80;99.90;;;;;;4838794;29;20805;-77
2023/06/25 01:52:15;;;;;;;3.10;1.92;;;20.80;99.90;;;;;;4834433;29;20052;-76
2023/06/25 01:54:43;;;;;;;4.55;2.30;;;20.70;99.90;;;;;;4861991;29;20051;-77
2023/06/25 01:57:10;;;;;;;6.30;2.80;;;20.70;99.90;;;;;;4853806;29;20047;-77
2023/06/25 01:59:37;;;;;;;3.35;1.90;;;20.70;99.90;;;;;;4853186;29;20090;-77
2023/06/25 02:02:04;;;;;;;4.43;3.13;;;20.70;99.90;;;;;;4840633;29;20037;-77
2023/06/25 02:04:32;;;;;;;5.07;2.70;;;20.80;99.90;;;;;;4847083;29;20056;-77
2023/06/25 02:06:59;;;;;;;4.80;2.20;;;20.80;99.90;;;;;;4856828;29;20104;-77
2023/06/25 02:09:27;;;;;;;5.53;2.70;;;20.80;99.90;;;;;;4865882;29;20056;-77
2023/06/25 02:11:54;;;;;;;4.00;2.65;;;20.80;99.90;;;;;;4850422;29;20060;-77
2023/06/25 02:14:21;;;;;;;5.50;2.80;;;20.80;99.90;;;;;;4847212;29;20720;-77
2023/06/25 02:16:49;;;;;;;4.28;2.35;;;20.80;99.90;;;;;;4855673;29;20171;-77
2023/06/25 02:19:16;;;;;;;5.47;2.65;;;20.70;99.90;;;;;;4834638;29;20060;-77
2023/06/25 02:21:43;;;;;;;6.28;2.90;;;20.70;99.90;;;;;;4853040;29;20154;-76
2023/06/25 02:24:10;;;;;;;5.45;3.53;;;20.70;99.90;;;;;;4867826;29;20055;-77
2023/06/25 02:26:39;;;;;;;6.82;3.47;;;20.70;99.90;;;;;;4858331;29;20056;-77
2023/06/25 02:29:08;;;;;;;3.95;2.70;;;20.70;99.90;;;;;;4850282;29;20044;-77
2023/06/25 02:31:35;;;;;;;4.95;2.97;;;20.70;99.90;;;;;;4857393;29;20052;-77
2023/06/25 02:34:02;;;;;;;4.78;3.08;;;20.70;99.90;;;;;;4841415;29;20540;-77
2023/06/25 02:36:30;;;;;;;5.70;3.38;;;20.70;99.90;;;;;;4853956;29;20092;-77
2023/06/25 02:38:57;;;;;;;6.18;2.92;;;20.70;99.90;;;;;;4858391;29;20048;-77
2023/06/25 02:41:24;;;;;;;5.25;3.08;;;20.70;99.90;;;;;;4857169;29;20080;-77
2023/06/25 02:43:51;;;;;;;5.53;2.80;;;20.70;99.90;;;;;;4855017;29;20147;-77
2023/06/25 02:46:19;;;;;;;4.43;2.53;;;20.80;99.90;;;;;;4870461;29;20055;-76
2023/06/25 02:48:46;;;;;;;4.22;2.55;;;20.80;99.90;;;;;;4865361;29;20738;-76
2023/06/25 02:51:14;;;;;;;6.68;2.78;;;20.70;99.90;;;;;;4864727;29;20827;-77
2023/06/25 02:53:42;;;;;;;6.90;2.90;;;20.70;99.90;;;;;;4854976;29;20119;-77
2023/06/25 02:56:09;;;;;;;3.22;2.00;;;20.70;99.90;;;;;;4865719;29;20059;-76
2023/06/25 02:58:36;;;;;;;5.90;2.85;;;20.70;99.90;;;;;;4839115;29;20508;-76
2023/06/25 03:01:03;;;;;;;6.28;2.97;;;20.80;99.90;;;;;;4850163;29;20099;-77
2023/06/25 03:03:31;;;;;;;4.50;2.70;;;20.80;99.90;;;;;;4871202;29;20147;-77
2023/06/25 03:05:58;;;;;;;4.03;2.55;;;20.70;99.90;;;;;;4870732;29;20082;-76
2023/06/25 03:08:25;;;;;;;4.80;2.83;;;20.70;99.90;;;;;;4879738;29;20095;-77
2023/06/25 03:10:52;;;;;;;7.43;3.10;;;20.70;99.90;;;;;;4868166;29;20048;-77
2023/06/25 03:13:20;;;;;;;4.75;3.05;;;20.70;99.90;;;;;;4852679;29;20197;-77
2023/06/25 03:15:47;;;;;;;7.22;2.78;;;20.70;99.90;;;;;;4851585;29;20524;-76
2023/06/25 03:18:14;;;;;;;4.80;3.05;;;20.70;99.90;;;;;;4859792;29;22295;-77
2023/06/25 03:20:41;;;;;;;5.60;2.80;;;20.70;99.90;;;;;;4843689;29;20056;-77
2023/06/25 03:23:08;;;;;;;5.63;3.08;;;20.70;99.90;;;;;;4853363;29;20392;-77
2023/06/25 03:25:35;;;;;;;6.90;3.53;;;20.70;99.90;;;;;;4873019;29;20048;-77
2023/06/25 03:28:15;;;;;;;5.65;2.75;;;20.70;99.90;;;;;;4845711;29;20055;-76
2023/06/25 03:30:46;;;;;;;4.82;2.55;;;20.70;99.90;;;;;;4891443;29;20163;-76
2023/06/25 03:33:14;;;;;;;5.38;2.75;;;20.70;99.90;;;;;;4864493;29;20047;-76
2023/06/25 03:35:41;;;;;;;5.85;3.05;;;20.70;99.90;;;;;;4864664;29;20384;-76
2023/06/25 03:38:10;;;;;;;5.90;3.00;;;20.80;99.90;;;;;;4879429;29;20217;-77
2023/06/25 03:40:39;;;;;;;5.57;2.85;;;20.80;99.90;;;;;;4879282;29;20056;-77
2023/06/25 03:43:06;;;;;;;4.05;2.67;;;20.70;99.90;;;;;;4858420;29;20515;-76
2023/06/25 03:45:34;;;;;;;5.05;3.22;;;20.80;99.90;;;;;;4849253;29;20079;-76
2023/06/25 03:48:02;;;;;;;4.43;2.58;;;20.80;99.90;;;;;;4871936;29;20059;-76
2023/06/25 03:50:30;;;;;;;4.57;3.10;;;20.70;99.90;;;;;;4853270;29;22360;-76
2023/06/25 03:52:57;;;;;;;6.65;3.47;;;20.70;99.90;;;;;;4869158;29;20036;-77
2023/06/25 03:55:25;;;;;;;5.10;2.58;;;20.70;99.90;;;;;;4857290;29;20458;-77
2023/06/25 03:57:55;;;;;;;5.90;3.38;;;20.70;99.90;;;;;;4865119;29;22280;-77
2023/06/25 04:00:22;;;;;;;4.30;3.00;;;20.70;99.90;;;;;;4848952;29;20728;-77
2023/06/25 04:02:49;;;;;;;6.05;3.80;;;20.80;99.90;;;;;;4875275;29;20139;-77
2023/06/25 04:05:17;;;;;;;6.07;3.67;;;20.80;99.90;;;;;;4855304;29;20054;-77
2023/06/25 04:07:45;;;;;;;6.53;4.05;;;20.80;99.90;;;;;;4868767;29;20534;-77
2023/06/25 04:10:12;;;;;;;5.22;3.75;;;20.80;99.90;;;;;;4871578;29;20082;-77
2023/06/25 04:12:43;;;;;;;5.30;3.38;;;20.80;99.90;;;;;;4852438;29;20064;-78
2023/06/25 04:15:10;;;;;;;6.32;3.50;;;20.80;99.90;;;;;;4860097;29;20051;-78
2023/06/25 04:17:39;;;;;;;6.32;3.55;;;20.70;99.90;;;;;;4856086;29;20048;-78
2023/06/25 04:20:08;;;;;;;6.80;3.95;;;20.80;99.90;;;;;;4857195;29;20052;-77
2023/06/25 04:22:35;;;;;;;5.82;3.95;;;20.70;99.90;;;;;;4854697;29;22438;-78
2023/06/25 04:25:03;;;;;;;6.28;3.40;;;20.60;99.90;;;;;;4857251;29;20172;-78
2023/06/25 04:27:30;;;;;;;5.65;3.88;;;20.60;99.90;;;;;;4858906;29;20051;-77
2023/06/25 04:29:57;;;;;;;6.32;3.92;;;20.50;99.90;;;;;;4840940;29;20544;-77
2023/06/25 04:32:26;;;;;;;6.95;4.50;;;20.60;99.90;;;;;;4846158;29;20060;-77
2023/06/25 04:34:53;;;;;;;6.07;3.60;;;20.70;99.90;;;;;;4834621;29;20048;-78
2023/06/25 04:37:20;;;;;;;5.45;3.20;;;20.70;99.90;;;;;;4852230;29;20062;-77
2023/06/25 04:39:48;;;;;;;5.07;3.45;;;20.60;99.90;;;;;;4848365;29;20056;-78
2023/06/25 04:42:18;;;;;;;6.63;3.70;;;20.70;99.90;;;;;;4855712;29;20040;-78
2023/06/25 04:44:45;;;;;;;5.82;3.67;;;20.70;99.90;;;;;;4847558;29;20052;-78
2023/06/25 04:47:12;;;;;;;5.57;3.28;;;20.70;99.90;;;;;;4863501;29;20515;-78
2023/06/25 04:49:40;;;;;;;6.68;4.20;;;20.70;99.90;;;;;;4846641;29;20143;-78
2023/06/25 04:52:07;;;;;;;6.72;4.10;;;20.80;99.90;;;;;;4864652;29;20059;-78
2023/06/25 04:54:34;;;;;;;7.55;4.53;;;20.80;99.90;;;;;;4850688;29;20242;-78
2023/06/25 04:57:01;;;;;;;6.97;3.97;;;20.70;99.90;;;;;;4863401;29;20524;-78
2023/06/25 04:59:29;;;;;;;5.55;3.97;;;20.70;99.90;;;;;;4867751;29;20128;-78
2023/06/25 05:01:59;;;;;;;7.72;4.10;;;20.80;99.90;;;;;;4851003;29;20063;-78
2023/06/25 05:04:26;;;;;;;10.88;4.32;;;20.70;99.90;;;;;;4864307;29;20056;-78
2023/06/25 05:06:54;;;;;;;7.07;4.28;;;20.70;99.90;;;;;;4862392;29;20431;-78
2023/06/25 05:09:22;;;;;;;6.93;4.10;;;20.70;99.90;;;;;;4864338;29;20515;-78
2023/06/25 05:11:49;;;;;;;6.57;3.88;;;20.80;99.90;;;;;;4863095;29;20048;-78
2023/06/25 05:14:17;;;;;;;6.47;4.13;;;20.70;99.90;;;;;;4847978;29;20083;-78
2023/06/25 05:16:44;;;;;;;7.53;4.25;;;20.70;99.90;;;;;;4840181;29;20139;-78
2023/06/25 05:19:13;;;;;;;6.22;4.25;;;20.70;99.90;;;;;;4841828;29;20052;-78
2023/06/25 05:21:40;;;;;;;6.53;3.92;;;20.70;99.90;;;;;;4864346;29;20048;-77
2023/06/25 05:24:08;;;;;;;6.25;3.85;;;20.80;99.90;;;;;;4866645;29;20059;-78
2023/06/25 05:26:37;;;;;;;6.40;4.43;;;20.80;99.90;;;;;;4863687;29;20712;-78
2023/06/25 05:29:05;;;;;;;7.53;4.70;;;20.80;99.90;;;;;;4854810;29;20044;-78
2023/06/25 05:31:32;;;;;;;6.63;4.63;;;20.80;99.90;;;;;;4852114;29;20180;-78
2023/06/25 05:34:00;;;;;;;7.65;5.00;;;20.80;99.90;;;;;;4851380;29;20048;-78
2023/06/25 05:36:28;;;;;;;8.55;5.20;;;20.70;99.90;;;;;;4840315;29;20259;-77
2023/06/25 05:38:56;;;;;;;5.93;4.28;;;20.80;99.90;;;;;;4879499;29;20119;-78
2023/06/25 05:41:23;;;;;;;7.05;4.28;;;20.80;99.90;;;;;;4849001;29;20214;-77
2023/06/25 05:43:53;;;;;;;9.57;4.97;;;20.90;99.90;;;;;;4864599;29;22629;-77
2023/06/25 05:46:20;;;;;;;9.68;5.78;;;20.70;99.90;;;;;;4838507;29;20176;-78
2023/06/25 05:48:47;;;;;;;7.40;4.97;;;20.60;99.90;;;;;;4869467;29;20777;-78
2023/06/25 05:51:15;;;;;;;9.68;5.32;;;20.70;99.90;;;;;;4856624;29;20481;-78
2023/06/25 05:53:43;;;;;;;6.95;4.80;;;20.70;99.90;;;;;;4875290;29;20053;-78
2023/06/25 05:56:11;;;;;;;7.72;4.82;;;20.90;99.90;;;;;;4872326;29;20056;-78
2023/06/25 05:58:43;;;;;;;;;;;20.90;99.90;;;;;;4856941;29;20151;-78
2023/06/25 06:01:10;;;;;;;8.07;5.47;;;20.90;99.90;;;;;;4865890;29;19927;-77
2023/06/25 06:03:37;;;;;;;9.07;5.97;;;20.90;99.90;;;;;;4848961;29;20928;-77
2023/06/25 06:06:04;;;;;;;7.30;5.30;;;20.90;99.90;;;;;;4859178;29;20829;-77
2023/06/25 06:08:31;;;;;;;9.73;6.72;;;21.00;99.90;;;;;;4883264;29;20052;-77
2023/06/25 06:10:59;;;;;;;9.07;6.70;;;20.90;99.90;;;;;;4856980;29;20048;-78
2023/06/25 06:13:26;;;;;;;12.55;7.13;;;21.10;99.90;;;;;;4857006;29;20060;-77
2023/06/25 06:15:53;;;;;;;9.10;6.45;;;21.10;99.90;;;;;;4869052;29;20120;-76
2023/06/25 06:18:21;;;;;;;8.20;6.03;;;21.10;99.90;;;;;;4835438;29;20079;-77
2023/06/25 06:20:48;;;;;;;9.40;7.55;;;21.10;99.90;;;;;;4857423;29;20135;-77
2023/06/25 06:23:15;;;;;;;9.68;6.43;;;21.00;99.90;;;;;;4863984;29;20044;-77
2023/06/25 06:25:42;;;;;;;10.60;7.78;;;21.10;99.90;;;;;;4851033;29;20139;-77
2023/06/25 06:28:09;;;;;;;11.50;8.00;;;21.10;99.90;;;;;;4854442;29;20065;-77
2023/06/25 06:30:36;;;;;;;10.98;7.13;;;21.00;99.90;;;;;;4847996;29;20643;-77
2023/06/25 06:33:04;;;;;;;10.57;6.80;;;21.00;99.90;;;;;;4855815;29;20063;-77
2023/06/25 06:35:31;;;;;;;12.23;7.68;;;21.00;99.90;;;;;;4867827;29;20052;-77
2023/06/25 06:37:58;;;;;;;9.43;6.32;;;21.00;99.90;;;;;;4846009;29;20821;-76
2023/06/25 06:40:25;;;;;;;9.05;5.75;;;21.00;99.90;;;;;;4857292;29;20067;-77
2023/06/25 06:42:52;;;;;;;7.88;5.25;;;21.00;99.90;;;;;;4864800;29;20052;-77
2023/06/25 06:45:19;;;;;;;9.93;6.15;;;21.00;99.90;;;;;;4835083;29;20524;-76
2023/06/25 06:47:46;;;;;;;7.13;5.13;;;21.00;99.90;;;;;;4864956;29;20092;-77
2023/06/25 06:50:13;;;;;;;9.23;5.95;;;21.00;99.90;;;;;;4854965;29;20140;-77
2023/06/25 06:52:43;;;;;;;8.25;5.70;;;20.90;99.90;;;;;;4864637;29;20048;-77
2023/06/25 06:55:10;;;;;;;8.63;5.57;;;20.80;99.90;;;;;;4836858;29;20405;-76
2023/06/25 06:57:38;;;;;;;8.88;5.60;;;20.90;99.90;;;;;;4838061;29;20072;-77
2023/06/25 07:00:06;;;;;;;8.57;6.00;;;20.80;99.90;;;;;;4843288;29;20056;-77
2023/06/25 07:02:33;;;;;;;6.18;4.80;;;20.90;99.90;;;;;;4866417;29;20056;-77
2023/06/25 07:05:00;;;;;;;7.88;5.45;;;21.00;99.90;;;;;;4853376;29;20049;-77
2023/06/25 07:07:28;;;;;;;6.65;4.35;;;21.00;99.90;;;;;;4835540;29;20052;-77
2023/06/25 07:09:55;;;;;;;7.15;4.85;;;21.00;99.90;;;;;;4859863;29;20587;-77
2023/06/25 07:12:22;;;;;;;5.10;3.70;;;21.00;99.90;;;;;;4861324;29;20139;-76
2023/06/25 07:14:49;;;;;;;5.28;3.80;;;21.00;99.90;;;;;;4852705;29;20059;-76
2023/06/25 07:17:16;;;;;;;5.80;4.03;;;21.00;99.90;;;;;;4857316;29;20064;-77
2023/06/25 07:19:44;;;;;;;8.07;3.97;;;21.00;99.90;;;;;;4864729;29;20044;-77
2023/06/25 07:22:11;;;;;;;6.68;4.43;;;21.00;99.90;;;;;;4863237;29;20183;-78
2023/06/25 07:24:38;;;;;;;9.35;5.22;;;21.10;99.90;;;;;;4863466;29;20088;-76
2023/06/25 07:27:05;;;;;;;5.97;4.50;;;21.50;99.90;;;;;;4848860;29;20052;-77
2023/06/25 07:29:34;;;;;;;5.50;3.95;;;21.30;99.90;;;;;;4854965;29;20456;-76
2023/06/25 07:32:01;;;;;;;7.00;4.40;;;21.30;99.90;;;;;;4862707;29;20190;-78
2023/06/25 07:34:30;;;;;;;6.28;4.72;;;21.30;99.90;;;;;;4863235;29;20049;-77
2023/06/25 07:36:57;;;;;;;6.80;4.30;;;21.30;99.90;;;;;;4848476;29;22264;-77
2023/06/25 07:39:29;;;;;;;6.30;3.92;;;21.40;99.90;;;;;;4860662;29;20556;-77
2023/06/25 07:41:57;;;;;;;6.43;4.33;;;21.40;99.90;;;;;;4855287;29;20055;-78
2023/06/25 07:44:25;;;;;;;7.68;4.43;;;21.50;99.90;;;;;;4848863;29;20401;-77
2023/06/25 07:47:12;;;;;;;5.60;4.03;;;21.60;99.90;;;;;;4863416;29;20044;-77
2023/06/25 07:49:39;;;;;;;7.78;4.40;;;21.70;99.90;;;;;;4847317;29;20183;-77
2023/06/25 07:52:06;;;;;;;6.88;4.50;;;21.80;99.90;;;;;;4855456;29;20183;-77
2023/06/25 07:54:34;;;;;;;15.35;5.65;;;21.90;99.90;;;;;;4851821;29;20694;-78
2023/06/25 07:57:01;;;;;;;5.53;4.28;;;22.20;99.90;;;;;;4860654;29;20151;-78
2023/06/25 07:59:28;;;;;;;8.73;4.18;;;22.20;99.90;;;;;;4871450;29;20147;-78
2023/06/25 08:02:12;;;;;;;6.68;5.05;;;22.30;99.90;;;;;;4858402;29;20072;-77
2023/06/25 08:04:40;;;;;;;7.28;5.05;;;22.40;99.90;;;;;;4854132;29;20436;-78
2023/06/25 08:07:08;;;;;;;5.95;4.18;;;22.20;99.90;;;;;;4867533;29;20052;-78
2023/06/25 08:09:36;;;;;;;7.57;4.43;;;22.20;99.90;;;;;;4856851;29;20061;-78
2023/06/25 08:12:03;;;;;;;6.68;4.85;;;22.20;99.90;;;;;;4863474;29;20110;-77
2023/06/25 08:14:31;;;;;;;5.95;4.47;;;21.90;99.90;;;;;;4863170;29;22436;-77
2023/06/25 08:16:58;;;;;;;5.60;4.35;;;22.10;99.90;;;;;;4855595;29;21051;-78
2023/06/25 08:19:25;;;;;;;7.47;5.15;;;22.10;99.90;;;;;;4865689;29;20040;-77
2023/06/25 08:21:52;;;;;;;6.55;4.88;;;22.10;99.90;;;;;;4846203;29;20048;-78
2023/06/25 08:24:19;;;;;;;8.57;5.25;;;22.10;99.90;;;;;;4870375;29;20057;-77
2023/06/25 08:26:46;;;;;;;7.50;5.10;;;22.00;99.90;;;;;;4866524;29;20489;-78
2023/06/25 08:29:13;;;;;;;7.90;4.80;;;22.10;99.90;;;;;;4877527;29;20069;-77
2023/06/25 08:31:40;;;;;;;6.95;4.90;;;22.20;99.90;;;;;;4848453;29;20295;-77
2023/06/25 08:34:08;;;;;;;6.60;4.88;;;22.40;99.90;;;;;;4849371;29;20063;-77
2023/06/25 08:36:36;;;;;;;7.80;5.18;;;22.30;99.90;;;;;;4869961;29;20124;-78
2023/06/25 08:39:03;;;;;;;8.13;4.85;;;22.30;99.90;;;;;;4866508;29;20053;-78
2023/06/25 08:41:30;;;;;;;9.68;5.60;;;22.40;99.90;;;;;;4849461;29;20228;-78
2023/06/25 08:43:57;;;;;;;7.47;4.82;;;22.10;99.90;;;;;;4840225;29;20062;-77
2023/06/25 08:46:25;;;;;;;7.65;4.85;;;22.20;99.90;;;;;;4847736;29;20048;-78
2023/06/25 08:48:54;;;;;;;7.80;5.90;;;22.30;99.90;;;;;;4863565;29;20229;-78
2023/06/25 08:51:24;;;;;;;8.45;4.60;;;22.30;99.90;;;;;;4857114;29;20159;-78
2023/06/25 08:53:55;;;;;;;9.48;5.60;;;22.40;99.90;;;;;;4838605;29;20087;-78
2023/06/25 08:56:22;;;;;;;7.28;4.90;;;22.50;99.90;;;;;;4831481;29;21243;-77
2023/06/25 08:58:50;;;;;;;7.05;4.53;;;22.60;99.90;;;;;;4851640;29;20294;-78
2023/06/25 09:01:18;;;;;;;8.05;5.68;;;22.80;99.90;;;;;;4878848;29;20148;-77
2023/06/25 09:03:45;;;;;;;9.52;5.05;;;22.80;99.90;;;;;;4847245;29;20063;-77
2023/06/25 09:06:16;;;;;;;7.82;4.72;;;23.00;99.90;;;;;;4846507;29;20542;-78
2023/06/25 09:08:43;;;;;;;8.95;6.32;;;23.10;99.90;;;;;;4844941;29;20056;-78
2023/06/25 09:11:11;;;;;;;7.03;4.72;;;23.00;99.90;;;;;;4851143;29;20547;-77
2023/06/25 09:13:39;;;;;;;6.25;4.35;;;23.10;99.90;;;;;;4852709;29;20056;-77
2023/06/25 09:16:09;;;;;;;7.93;5.25;;;23.40;99.90;;;;;;4877946;29;20088;-77
2023/06/25 09:18:37;;;;;;;6.13;4.60;;;23.60;99.90;;;;;;4868018;29;20053;-77
2023/06/25 09:21:06;;;;;;;7.88;4.93;;;23.50;99.90;;;;;;4851765;29;20135;-77
2023/06/25 09:23:35;;;;;;;7.43;4.30;;;23.50;99.90;;;;;;4852389;29;20068;-77
2023/06/25 09:26:09;;;;;;;6.15;5.10;;;23.60;99.90;;;;;;4848768;29;20060;-77
2023/06/25 09:28:59;;;;;;;5.68;3.63;;;23.70;99.20;;;;;;4853499;29;22344;-77
2023/06/25 09:31:26;;;;;;;4.72;3.28;;;23.50;99.90;;;;;;4867083;29;20729;-78
2023/06/25 09:33:54;;;;;;;5.15;3.60;;;23.30;99.90;;;;;;4853001;29;20060;-77
2023/06/25 09:36:21;;;;;;;3.70;2.50;;;22.90;99.90;;;;;;4851093;29;20040;-78
2023/06/25 09:39:07;;;;;;;5.57;3.35;;;22.80;99.90;;;;;;4863251;29;20231;-78
2023/06/25 09:41:35;;;;;;;4.95;2.60;;;22.80;99.90;;;;;;4840936;29;20055;-78
2023/06/25 09:44:04;;;;;;;6.50;3.45;;;22.90;99.90;;;;;;4872269;29;20052;-78
2023/06/25 09:46:39;;;;;;;4.82;2.67;;;22.90;99.00;;;;;;4845756;29;20052;-78
2023/06/25 09:49:07;;;;;;;5.25;3.20;;;23.00;97.80;;;;;;4857399;29;20811;-78
2023/06/25 09:51:48;;;;;;;4.32;2.67;;;23.20;98.40;;;;;;4842450;29;20064;-78
2023/06/25 09:54:21;;;;;;;3.63;2.78;;;23.60;99.20;;;;;;4868994;29;20165;-77
2023/06/25 09:56:49;;;;;;;4.35;3.20;;;23.80;98.00;;;;;;4852803;29;23032;-79
2023/06/25 09:59:17;;;;;;;4.30;3.20;;;24.20;98.10;;;;;;4856747;29;20408;-77
2023/06/25 10:01:44;;;;;;;5.18;3.08;;;24.20;96.70;;;;;;4858560;29;20083;-77
2023/06/25 10:04:12;;;;;;;4.80;3.40;;;24.20;97.10;;;;;;4856084;29;20800;-77
2023/06/25 10:06:40;;;;;;;5.32;3.72;;;24.20;98.20;;;;;;4852730;29;22393;-77
2023/06/25 10:09:07;;;;;;;6.15;3.40;;;24.10;97.40;;;;;;4856183;29;22398;-77
2023/06/25 10:11:35;;;;;;;5.35;3.00;;;24.00;96.10;;;;;;4846124;29;20056;-77
2023/06/25 10:14:04;;;;;;;4.00;2.80;;;24.00;96.80;;;;;;4869744;29;20155;-77
2023/06/25 10:16:33;;;;;;;10.18;4.20;;;24.00;96.30;;;;;;4872246;29;20061;-77
2023/06/25 10:19:06;;;;;;;3.80;1.33;;;23.90;96.50;;;;;;4860360;29;20052;-78
2023/06/25 10:21:33;;;;;;;2.67;1.95;;;23.70;92.50;;;;;;4859581;29;20060;-77
2023/06/25 10:24:03;;;;;;;2.50;1.90;;;23.80;92.80;;;;;;4840119;29;20048;-77
2023/06/25 10:26:35;;;;;;;7.15;2.80;;;23.80;93.00;;;;;;4871316;29;20056;-78
2023/06/25 10:29:06;;;;;;;3.63;1.58;;;24.00;94.30;;;;;;4858629;29;20432;-78
2023/06/25 10:31:38;;;;;;;1.80;1.38;;;23.90;92.50;;;;;;4847992;29;20059;-78
2023/06/25 10:34:07;;;;;;;2.28;0.98;;;23.80;92.60;;;;;;4869494;29;20052;-78
2023/06/25 10:36:35;;;;;;;3.05;1.40;;;24.00;93.70;;;;;;4861214;29;20524;-77
2023/06/25 10:39:03;;;;;;;3.85;1.88;;;24.10;92.70;;;;;;4872700;29;20355;-77
2023/06/25 10:41:31;;;;;;;2.10;1.05;;;24.00;91.30;;;;;;4868080;29;20060;-77
2023/06/25 10:43:58;;;;;;;2.33;1.25;;;24.10;92.70;;;;;;4870872;29;20116;-78
2023/06/25 10:46:30;;;;;;;2.75;1.50;;;24.20;91.90;;;;;;4868157;29;20054;-77
2023/06/25 10:49:03;;;;;;;5.25;1.95;;;24.10;91.40;;;;;;4838445;29;21059;-77
2023/06/25 10:51:32;;;;;;;3.53;1.90;;;24.30;92.30;;;;;;4871107;29;20056;-77
2023/06/25 10:53:59;;;;;;;4.07;1.90;;;24.30;91.60;;;;;;4861222;29;20131;-77
2023/06/25 10:56:27;;;;;;;4.28;2.70;;;24.40;92.10;;;;;;4881900;29;20100;-77
2023/06/25 10:58:58;;;;;;;2.60;1.85;;;24.60;92.60;;;;;;4867124;29;20054;-77
2023/06/25 11:01:33;;;;;;;1.27;1.05;;;24.70;92.70;;;;;;4874763;29;20439;-77
2023/06/25 11:04:01;;;;;;;3.33;1.40;;;24.60;91.40;;;;;;4872488;29;21025;-77
2023/06/25 11:06:36;;;;;;;1.52;0.82;;;24.60;90.90;;;;;;4856392;29;20049;-78
2023/06/25 11:09:03;;;;;;;1.88;1.00;;;24.30;89.50;;;;;;4858690;29;20610;-77
2023/06/25 11:11:30;;;;;;;1.83;1.30;;;24.40;90.10;;;;;;4855438;29;20552;-77
2023/06/25 11:13:57;;;;;;;1.70;0.90;;;24.50;90.70;;;;;;4857110;29;20194;-76
2023/06/25 11:16:24;;;;;;;1.55;1.08;;;24.70;90.80;;;;;;4848971;29;20044;-77
2023/06/25 11:18:51;;;;;;;2.13;1.65;;;24.90;91.20;;;;;;4884697;29;20040;-77
2023/06/25 11:21:18;;;;;;;0.95;0.60;;;24.90;90.70;;;;;;4889694;29;20441;-77
2023/06/25 11:23:45;;;;;;;1.42;1.10;;;25.00;88.00;;;;;;4888959;29;20048;-77
2023/06/25 11:26:17;;;;;;;2.90;1.92;;;25.00;88.40;;;;;;4903658;29;20059;-77
2023/06/25 11:28:48;;;;;;;6.10;3.10;;;24.90;89.40;;;;;;4889108;29;20059;-79
2023/06/25 11:31:15;;;;;;;5.57;3.17;;;24.90;92.20;;;;;;4875375;29;20104;-77
2023/06/25 11:33:52;;;;;;;4.43;2.85;;;24.80;92.40;;;;;;4889458;29;20092;-77
2023/06/25 11:36:23;;;;;;;3.78;2.67;;;24.80;92.50;;;;;;4877856;29;20048;-77
2023/06/25 11:38:50;;;;;;;4.13;2.63;;;24.70;92.80;;;;;;4905213;29;20641;-77
2023/06/25 11:41:26;;;;;;;5.30;3.75;;;24.60;93.60;;;;;;4890460;29;20143;-76
2023/06/25 11:43:53;;;;;;;3.30;2.53;;;24.70;94.80;;;;;;4901872;29;20071;-77
2023/06/25 11:46:20;;;;;;;5.30;2.70;;;24.60;93.30;;;;;;4898130;29;20051;-78
2023/06/25 11:48:48;;;;;;;4.05;2.75;;;24.70;94.30;;;;;;4903622;29;20136;-77
2023/06/25 11:51:15;;;;;;;2.70;2.40;;;24.80;94.80;;;;;;4902932;29;20053;-76
2023/06/25 11:53:42;;;;;;;2.92;2.30;;;24.80;94.00;;;;;;4910728;29;20052;-77
2023/06/25 11:56:09;;;;;;;3.30;2.15;;;24.70;93.50;;;;;;4902630;29;20487;-77
2023/06/25 11:58:36;;;;;;;5.43;2.38;;;24.70;94.10;;;;;;4900954;29;20040;-77
2023/06/25 12:01:03;;;;;;;3.10;2.53;;;24.80;93.20;;;;;;4867814;29;20095;-78
2023/06/25 12:03:31;;;;;;;3.28;2.20;;;24.90;93.30;;;;;;4885008;29;20048;-78
2023/06/25 12:05:58;;;;;;;3.70;1.90;;;25.00;93.50;;;;;;4895129;29;20111;-77
2023/06/25 12:08:25;;;;;;;3.85;2.60;;;25.00;92.40;;;;;;4879419;29;20055;-77
2023/06/25 12:10:53;;;;;;;6.30;2.55;;;25.20;92.70;;;;;;4890551;29;20104;-77
2023/06/25 12:13:20;;;;;;;1.70;0.80;;;25.20;91.90;;;;;;4906314;29;20091;-77
2023/06/25 12:15:47;;;;;;;1.13;0.73;;;25.00;88.70;;;;;;4889125;29;20131;-77
2023/06/25 12:18:14;;;;;;;1.60;0.88;;;24.90;88.20;;;;;;4905441;29;21797;-78
2023/06/25 12:20:41;;;;;;;1.98;0.95;;;24.80;90.00;;;;;;4895380;29;20040;-78
2023/06/25 12:23:08;;;;;;;1.25;0.90;;;24.80;90.70;;;;;;4885207;29;20052;-78
2023/06/25 12:25:36;;;;;;;1.13;0.52;;;24.70;88.70;;;;;;4894685;29;20056;-77
2023/06/25 12:28:04;;;;;;;1.17;0.70;;;24.80;87.90;;;;;;4902324;29;20048;-77
2023/06/25 12:30:31;;;;;;;1.17;0.47;;;24.80;87.40;;;;;;4893074;29;20032;-78
2023/06/25 12:32:58;;;;;;;2.88;1.63;;;24.80;86.30;;;;;;4888577;29;20611;-77
2023/06/25 12:35:25;;;;;;;1.52;0.82;;;24.80;86.00;;;;;;4892979;29;20036;-79
2023/06/25 12:37:53;;;;;;;3.28;1.08;;;24.80;85.20;;;;;;4890540;29;20048;-77
2023/06/25 12:40:20;;;;;;;5.63;3.75;;;24.80;85.10;;;;;;4899242;29;20063;-77
2023/06/25 12:42:47;;;;;;;6.55;3.92;;;24.90;86.30;;;;;;4898689;29;20135;-78
2023/06/25 12:45:14;;;;;;;2.03;0.90;;;25.20;87.40;;;;;;4884821;29;20052;-77
2023/06/25 12:47:41;;;;;;;1.00;0.52;;;25.20;85.40;;;;;;4876778;29;20048;-77
2023/06/25 12:50:11;;;;;;;0.85;0.38;;;25.30;86.60;;;;;;4887684;29;20056;-77
2023/06/25 12:52:38;;;;;;;2.33;0.85;;;25.30;86.50;;;;;;4902942;29;20063;-77